sensor_id;sensor_type;location;lat;lon;timestamp;pressure;altitude;pressure_sealevel;temperature;humidity
21276;BME280;36472;52.170;20.884;2022-08-01T00:00:11;100119.31;;;16.90;100.00
21276;BME280;36472;52.170;20.884;2022-08-01T00:03:00;100122.91;;;16.61;100.00
21276;BME280;36472;52.170;20.884;2022-08-01T00:05:30;100119.22;;;17.27;100.00
21276;BME280;36472;52.170;20.884;2022-08-01T00:07:59;100117.06;;;17.13;100.00
21276;BME280;36472;52.170;20.884;2022-08-01T00:10:27;100115.22;;;16.95;100.00
21276;BME280;36472;52.170;20.884;2022-08-01T00:12:58;100113.28;;;17.15;100.00
21276;BME280;36472;52.170;20.884;2022-08-01T00:15:26;100112.41;;;16.69;100.00
21276;BME280;36472;52.170;20.884;2022-08-01T00:17:55;100113.00;;;17.18;100.00
21276;BME280;36472;52.170;20.884;2022-08-01T00:20:24;100100.31;;;17.12;100.00
21276;BME280;36472;52.170;20.884;2022-08-01T00:22:53;100097.84;;;16.45;100.00
21276;BME280;36472;52.170;20.884;2022-08-01T00:25:21;100095.84;;;16.10;100.00
21276;BME280;36472;52.170;20.884;2022-08-01T00:28:02;100090.41;;;16.77;100.00
21276;BME280;36472;52.170;20.884;2022-08-01T00:30:31;100086.72;;;16.32;100.00
21276;BME280;36472;52.170;20.884;2022-08-01T00:33:00;100091.13;;;16.41;100.00
21276;BME280;36472;52.170;20.884;2022-08-01T00:35:29;100090.03;;;16.99;100.00
21276;BME280;36472;52.170;20.884;2022-08-01T00:37:58;100088.59;;;16.50;100.00
21276;BME280;36472;52.170;20.884;2022-08-01T00:40:26;100092.94;;;17.06;100.00
21276;BME280;36472;52.170;20.884;2022-08-01T00:42:55;100090.84;;;16.44;100.00
21276;BME280;36472;52.170;20.884;2022-08-01T00:45:25;100094.50;;;16.43;100.00
21276;BME280;36472;52.170;20.884;2022-08-01T00:47:54;100085.97;;;16.02;100.00
21276;BME280;36472;52.170;20.884;2022-08-01T00:50:23;100086.25;;;16.09;100.00
21276;BME280;36472;52.170;20.884;2022-08-01T00:52:54;100086.13;;;15.81;100.00
21276;BME280;36472;52.170;20.884;2022-08-01T00:55:24;100085.28;;;15.51;100.00
21276;BME280;36472;52.170;20.884;2022-08-01T00:57:54;100079.66;;;16.13;100.00
21276;BME280;36472;52.170;20.884;2022-08-01T01:00:35;100083.00;;;16.05;100.00
21276;BME280;36472;52.170;20.884;2022-08-01T01:03:22;100097.69;;;15.61;100.00
21276;BME280;36472;52.170;20.884;2022-08-01T01:06:25;100096.88;;;16.47;100.00
21276;BME280;36472;52.170;20.884;2022-08-01T01:09:15;100101.56;;;16.53;100.00
21276;BME280;36472;52.170;20.884;2022-08-01T01:12:06;100093.88;;;16.12;100.00
21276;BME280;36472;52.170;20.884;2022-08-01T01:14:49;100095.94;;;16.28;100.00
21276;BME280;36472;52.170;20.884;2022-08-01T01:17:28;100104.13;;;15.87;100.00
21276;BME280;36472;52.170;20.884;2022-08-01T01:20:21;100104.00;;;16.36;100.00
21276;BME280;36472;52.170;20.884;2022-08-01T01:23:08;100098.81;;;15.78;100.00
21276;BME280;36472;52.170;20.884;2022-08-01T01:26:04;100091.47;;;16.29;100.00
21276;BME280;36472;52.170;20.884;2022-08-01T01:29:06;100099.03;;;16.14;100.00
21276;BME280;36472;52.170;20.884;2022-08-01T01:31:44;100096.84;;;15.89;100.00
21276;BME280;36472;52.170;20.884;2022-08-01T01:34:19;100091.03;;;16.71;100.00
21276;BME280;36472;52.170;20.884;2022-08-01T01:36:54;100102.78;;;16.21;100.00
21276;BME280;36472;52.170;20.884;2022-08-01T01:39:26;100096.78;;;16.19;100.00
21276;BME280;36472;52.170;20.884;2022-08-01T01:41:58;100100.75;;;15.66;100.00
21276;BME280;36472;52.170;20.884;2022-08-01T01:44:31;100099.50;;;15.80;100.00
21276;BME280;36472;52.170;20.884;2022-08-01T01:47:00;100104.56;;;16.40;100.00
21276;BME280;36472;52.170;20.884;2022-08-01T01:49:31;100098.81;;;15.78;100.00
21276;BME280;36472;52.170;20.884;2022-08-01T01:52:03;100097.88;;;16.26;100.00
21276;BME280;36472;52.170;20.884;2022-08-01T01:54:36;100102.59;;;15.75;100.00
21276;BME280;36472;52.170;20.884;2022-08-01T01:57:07;100099.09;;;15.65;100.00
21276;BME280;36472;52.170;20.884;2022-08-01T01:59:40;100103.25;;;15.28;100.00
21276;BME280;36472;52.170;20.884;2022-08-01T02:02:12;100100.22;;;15.82;100.00
21276;BME280;36472;52.170;20.884;2022-08-01T02:04:46;100100.03;;;15.25;100.00
21276;BME280;36472;52.170;20.884;2022-08-01T02:07:22;100098.53;;;15.42;100.00
21276;BME280;36472;52.170;20.884;2022-08-01T02:09:54;100102.69;;;15.15;100.00
21276;BME280;36472;52.170;20.884;2022-08-01T02:12:24;100099.22;;;15.24;100.00
21276;BME280;36472;52.170;20.884;2022-08-01T02:14:56;100088.16;;;16.07;100.00
21276;BME280;36472;52.170;20.884;2022-08-01T02:17:27;100084.31;;;15.62;100.00
21276;BME280;36472;52.170;20.884;2022-08-01T02:19:57;100088.22;;;15.29;100.00
21276;BME280;36472;52.170;20.884;2022-08-01T02:22:31;100086.53;;;15.67;100.00
21276;BME280;36472;52.170;20.884;2022-08-01T02:25:06;100092.66;;;15.19;100.00
21276;BME280;36472;52.170;20.884;2022-08-01T02:27:44;100095.47;;;15.46;100.00
21276;BME280;36472;52.170;20.884;2022-08-01T02:30:15;100089.63;;;15.43;100.00
21276;BME280;36472;52.170;20.884;2022-08-01T02:32:49;100092.41;;;15.51;100.00
21276;BME280;36472;52.170;20.884;2022-08-01T02:35:24;100098.53;;;15.22;100.00
21276;BME280;36472;52.170;20.884;2022-08-01T02:37:57;100096.81;;;15.02;100.00
21276;BME280;36472;52.170;20.884;2022-08-01T02:40:31;100094.41;;;14.58;100.00
21276;BME280;36472;52.170;20.884;2022-08-01T02:43:03;100095.66;;;14.54;100.00
21276;BME280;36472;52.170;20.884;2022-08-01T02:45:39;100095.88;;;14.72;100.00
21276;BME280;36472;52.170;20.884;2022-08-01T02:48:13;100098.94;;;15.37;100.00
21276;BME280;36472;52.170;20.884;2022-08-01T02:50:48;100097.66;;;15.02;100.00
21276;BME280;36472;52.170;20.884;2022-08-01T02:53:21;100092.28;;;14.73;100.00
21276;BME280;36472;52.170;20.884;2022-08-01T02:56:12;100101.03;;;14.43;100.00
21276;BME280;36472;52.170;20.884;2022-08-01T02:58:42;100098.13;;;15.76;100.00
21276;BME280;36472;52.170;20.884;2022-08-01T03:01:16;100099.09;;;15.84;100.00
21276;BME280;36472;52.170;20.884;2022-08-01T03:03:47;100107.19;;;15.34;100.00
21276;BME280;36472;52.170;20.884;2022-08-01T03:06:17;100110.78;;;15.33;100.00
21276;BME280;36472;52.170;20.884;2022-08-01T03:08:48;100098.97;;;14.67;100.00
21276;BME280;36472;52.170;20.884;2022-08-01T03:11:18;100104.09;;;15.48;100.00
21276;BME280;36472;52.170;20.884;2022-08-01T03:13:50;100113.97;;;15.27;100.00
21276;BME280;36472;52.170;20.884;2022-08-01T03:16:25;100117.78;;;15.34;100.00
21276;BME280;36472;52.170;20.884;2022-08-01T03:18:56;100107.31;;;14.72;100.00
21276;BME280;36472;52.170;20.884;2022-08-01T03:21:26;100109.69;;;15.36;100.00
21276;BME280;36472;52.170;20.884;2022-08-01T03:23:58;100114.63;;;15.00;100.00
21276;BME280;36472;52.170;20.884;2022-08-01T03:26:31;100111.78;;;14.82;100.00
21276;BME280;36472;52.170;20.884;2022-08-01T03:29:05;100109.63;;;14.96;100.00
21276;BME280;36472;52.170;20.884;2022-08-01T03:31:38;100110.66;;;15.34;100.00
21276;BME280;36472;52.170;20.884;2022-08-01T03:34:10;100119.41;;;15.35;100.00
21276;BME280;36472;52.170;20.884;2022-08-01T03:36:47;100124.19;;;15.61;100.00
21276;BME280;36472;52.170;20.884;2022-08-01T03:39:18;100123.03;;;16.12;100.00
21276;BME280;36472;52.170;20.884;2022-08-01T03:41:56;100128.22;;;15.65;100.00
21276;BME280;36472;52.170;20.884;2022-08-01T03:44:32;100124.72;;;15.45;100.00
21276;BME280;36472;52.170;20.884;2022-08-01T03:47:07;100133.94;;;15.50;100.00
21276;BME280;36472;52.170;20.884;2022-08-01T03:49:42;100126.06;;;15.00;100.00
21276;BME280;36472;52.170;20.884;2022-08-01T03:52:13;100134.53;;;15.83;100.00
21276;BME280;36472;52.170;20.884;2022-08-01T03:54:48;100141.19;;;16.17;100.00
21276;BME280;36472;52.170;20.884;2022-08-01T03:57:19;100144.97;;;15.65;100.00
21276;BME280;36472;52.170;20.884;2022-08-01T04:00:05;100144.78;;;15.28;100.00
21276;BME280;36472;52.170;20.884;2022-08-01T04:02:41;100145.38;;;15.70;100.00
21276;BME280;36472;52.170;20.884;2022-08-01T04:05:10;100147.91;;;15.82;100.00
21276;BME280;36472;52.170;20.884;2022-08-01T04:07:39;100148.41;;;15.37;100.00
21276;BME280;36472;52.170;20.884;2022-08-01T04:10:11;100147.19;;;15.70;100.00
21276;BME280;36472;52.170;20.884;2022-08-01T04:12:39;100148.97;;;15.40;100.00
21276;BME280;36472;52.170;20.884;2022-08-01T04:15:08;100151.88;;;15.27;100.00
21276;BME280;36472;52.170;20.884;2022-08-01T04:17:37;100149.97;;;15.68;100.00
21276;BME280;36472;52.170;20.884;2022-08-01T04:20:10;100151.91;;;15.47;100.00
21276;BME280;36472;52.170;20.884;2022-08-01T04:22:39;100146.16;;;15.32;100.00
21276;BME280;36472;52.170;20.884;2022-08-01T04:25:17;100144.28;;;15.93;100.00
21276;BME280;36472;52.170;20.884;2022-08-01T04:27:50;100150.44;;;15.83;100.00
21276;BME280;36472;52.170;20.884;2022-08-01T04:30:26;100149.28;;;15.66;100.00
21276;BME280;36472;52.170;20.884;2022-08-01T04:32:59;100154.75;;;15.94;100.00
21276;BME280;36472;52.170;20.884;2022-08-01T04:35:31;100161.13;;;15.72;100.00
21276;BME280;36472;52.170;20.884;2022-08-01T04:38:25;100151.78;;;15.48;100.00
21276;BME280;36472;52.170;20.884;2022-08-01T04:40:56;100160.84;;;15.56;100.00
21276;BME280;36472;52.170;20.884;2022-08-01T04:43:35;100160.94;;;15.25;100.00
21276;BME280;36472;52.170;20.884;2022-08-01T04:46:06;100154.75;;;15.05;100.00
21276;BME280;36472;52.170;20.884;2022-08-01T04:48:38;100166.41;;;15.52;100.00
21276;BME280;36472;52.170;20.884;2022-08-01T04:51:14;100163.63;;;15.54;100.00
21276;BME280;36472;52.170;20.884;2022-08-01T04:53:44;100163.59;;;15.34;100.00
21276;BME280;36472;52.170;20.884;2022-08-01T04:56:14;100168.81;;;15.85;100.00
21276;BME280;36472;52.170;20.884;2022-08-01T04:58:43;100169.91;;;16.21;100.00
21276;BME280;36472;52.170;20.884;2022-08-01T05:01:13;100171.88;;;16.00;100.00
21276;BME280;36472;52.170;20.884;2022-08-01T05:03:42;100173.56;;;15.91;100.00
21276;BME280;36472;52.170;20.884;2022-08-01T05:06:12;100173.78;;;15.39;100.00
21276;BME280;36472;52.170;20.884;2022-08-01T05:08:42;100180.38;;;15.55;100.00
21276;BME280;36472;52.170;20.884;2022-08-01T05:11:11;100178.78;;;16.50;100.00
21276;BME280;36472;52.170;20.884;2022-08-01T05:13:39;100182.78;;;15.87;100.00
21276;BME280;36472;52.170;20.884;2022-08-01T05:16:08;100187.78;;;16.10;100.00
21276;BME280;36472;52.170;20.884;2022-08-01T05:18:37;100171.72;;;15.43;100.00
21276;BME280;36472;52.170;20.884;2022-08-01T05:21:06;100185.22;;;16.47;100.00
21276;BME280;36472;52.170;20.884;2022-08-01T05:23:36;100176.72;;;15.46;100.00
21276;BME280;36472;52.170;20.884;2022-08-01T05:26:10;100184.16;;;15.81;100.00
21276;BME280;36472;52.170;20.884;2022-08-01T05:28:42;100187.25;;;15.77;100.00
21276;BME280;36472;52.170;20.884;2022-08-01T05:31:11;100190.13;;;16.42;100.00
21276;BME280;36472;52.170;20.884;2022-08-01T05:33:39;100199.22;;;16.00;100.00
21276;BME280;36472;52.170;20.884;2022-08-01T05:36:08;100198.34;;;15.61;100.00
21276;BME280;36472;52.170;20.884;2022-08-01T05:38:38;100199.72;;;15.45;100.00
21276;BME280;36472;52.170;20.884;2022-08-01T05:41:07;100189.91;;;15.26;100.00
21276;BME280;36472;52.170;20.884;2022-08-01T05:43:35;100192.81;;;15.23;100.00
21276;BME280;36472;52.170;20.884;2022-08-01T05:46:04;100193.16;;;15.59;100.00
21276;BME280;36472;52.170;20.884;2022-08-01T05:48:33;100186.38;;;15.76;100.00
21276;BME280;36472;52.170;20.884;2022-08-01T05:51:02;100198.47;;;15.59;100.00
21276;BME280;36472;52.170;20.884;2022-08-01T05:53:31;100193.75;;;15.73;100.00
21276;BME280;36472;52.170;20.884;2022-08-01T05:56:03;100199.03;;;16.51;100.00
21276;BME280;36472;52.170;20.884;2022-08-01T05:58:32;100206.59;;;16.83;100.00
21276;BME280;36472;52.170;20.884;2022-08-01T06:01:01;100195.72;;;17.42;98.67
21276;BME280;36472;52.170;20.884;2022-08-01T06:03:29;100198.28;;;16.68;100.00
21276;BME280;36472;52.170;20.884;2022-08-01T06:06:00;100197.44;;;17.33;100.00
21276;BME280;36472;52.170;20.884;2022-08-01T06:08:29;100206.72;;;17.47;98.51
21276;BME280;36472;52.170;20.884;2022-08-01T06:10:58;100203.56;;;17.79;97.19
21276;BME280;36472;52.170;20.884;2022-08-01T06:13:29;100201.97;;;17.68;98.75
21276;BME280;36472;52.170;20.884;2022-08-01T06:15:57;100200.84;;;18.51;87.34
21276;BME280;36472;52.170;20.884;2022-08-01T06:18:26;100206.53;;;18.12;91.34
21276;BME280;36472;52.170;20.884;2022-08-01T06:20:55;100203.66;;;18.05;92.68
21276;BME280;36472;52.170;20.884;2022-08-01T06:23:23;100204.22;;;18.61;86.20
21276;BME280;36472;52.170;20.884;2022-08-01T06:25:59;100206.53;;;18.56;86.78
21276;BME280;36472;52.170;20.884;2022-08-01T06:28:29;100217.19;;;18.12;90.49
21276;BME280;36472;52.170;20.884;2022-08-01T06:30:58;100211.69;;;18.31;85.15
21276;BME280;36472;52.170;20.884;2022-08-01T06:33:28;100214.72;;;18.63;85.75
21276;BME280;36472;52.170;20.884;2022-08-01T06:35:56;100218.19;;;18.11;92.73
21276;BME280;36472;52.170;20.884;2022-08-01T06:38:25;100218.25;;;18.01;94.67
21276;BME280;36472;52.170;20.884;2022-08-01T06:40:54;100220.00;;;17.92;93.75
21276;BME280;36472;52.170;20.884;2022-08-01T06:43:22;100215.88;;;17.80;94.21
21276;BME280;36472;52.170;20.884;2022-08-01T06:45:53;100212.25;;;18.87;86.32
21276;BME280;36472;52.170;20.884;2022-08-01T06:48:21;100223.16;;;18.32;91.85
21276;BME280;36472;52.170;20.884;2022-08-01T06:50:50;100215.81;;;18.78;84.91
21276;BME280;36472;52.170;20.884;2022-08-01T06:53:37;100219.13;;;18.98;84.52
21276;BME280;36472;52.170;20.884;2022-08-01T06:56:06;100212.66;;;18.04;95.22
21276;BME280;36472;52.170;20.884;2022-08-01T06:58:36;100210.56;;;18.86;88.10
21276;BME280;36472;52.170;20.884;2022-08-01T07:01:07;100216.53;;;18.36;90.62
21276;BME280;36472;52.170;20.884;2022-08-01T07:03:36;100220.53;;;19.70;82.01
21276;BME280;36472;52.170;20.884;2022-08-01T07:06:23;100217.59;;;19.38;84.86
21276;BME280;36472;52.170;20.884;2022-08-01T07:08:53;100215.91;;;18.68;91.59
21276;BME280;36472;52.170;20.884;2022-08-01T07:11:23;100218.09;;;20.17;81.70
21276;BME280;36472;52.170;20.884;2022-08-01T07:13:52;100217.53;;;21.19;73.62
21276;BME280;36472;52.170;20.884;2022-08-01T07:16:22;100210.50;;;21.26;75.23
21276;BME280;36472;52.170;20.884;2022-08-01T07:18:51;100210.94;;;20.99;76.79
21276;BME280;36472;52.170;20.884;2022-08-01T07:21:19;100214.75;;;21.75;71.47
21276;BME280;36472;52.170;20.884;2022-08-01T07:24:09;100219.63;;;21.40;74.81
21276;BME280;36472;52.170;20.884;2022-08-01T07:26:42;100209.13;;;21.93;69.81
21276;BME280;36472;52.170;20.884;2022-08-01T07:29:22;100207.22;;;22.02;69.42
21276;BME280;36472;52.170;20.884;2022-08-01T07:31:54;100202.03;;;21.77;71.67
21276;BME280;36472;52.170;20.884;2022-08-01T07:34:25;100206.88;;;21.11;73.97
21276;BME280;36472;52.170;20.884;2022-08-01T07:36:54;100203.69;;;21.55;70.28
21276;BME280;36472;52.170;20.884;2022-08-01T07:39:22;100205.75;;;22.37;69.04
21276;BME280;36472;52.170;20.884;2022-08-01T07:41:51;100196.91;;;22.82;64.99
21276;BME280;36472;52.170;20.884;2022-08-01T07:44:34;100210.13;;;22.53;63.10
21276;BME280;36472;52.170;20.884;2022-08-01T07:47:06;100207.66;;;22.29;69.71
21276;BME280;36472;52.170;20.884;2022-08-01T07:49:35;100208.66;;;22.95;65.59
21276;BME280;36472;52.170;20.884;2022-08-01T07:52:08;100205.78;;;22.97;68.51
21276;BME280;36472;52.170;20.884;2022-08-01T07:54:36;100207.69;;;24.34;63.20
21276;BME280;36472;52.170;20.884;2022-08-01T07:57:05;100198.72;;;26.00;54.82
21276;BME280;36472;52.170;20.884;2022-08-01T07:59:35;100205.09;;;26.73;53.52
21276;BME280;36472;52.170;20.884;2022-08-01T08:02:05;100206.84;;;27.12;51.78
21276;BME280;36472;52.170;20.884;2022-08-01T08:04:34;100198.25;;;27.35;49.63
21276;BME280;36472;52.170;20.884;2022-08-01T08:07:03;100208.97;;;27.80;47.27
21276;BME280;36472;52.170;20.884;2022-08-01T08:09:32;100211.22;;;27.52;47.86
21276;BME280;36472;52.170;20.884;2022-08-01T08:12:06;100210.75;;;27.30;50.64
21276;BME280;36472;52.170;20.884;2022-08-01T08:14:36;100209.59;;;27.51;48.24
21276;BME280;36472;52.170;20.884;2022-08-01T08:17:06;100206.47;;;27.02;49.91
21276;BME280;36472;52.170;20.884;2022-08-01T08:19:35;100210.84;;;25.56;54.57
21276;BME280;36472;52.170;20.884;2022-08-01T08:22:07;100215.97;;;24.96;57.41
21276;BME280;36472;52.170;20.884;2022-08-01T08:24:37;100208.03;;;26.38;53.21
21276;BME280;36472;52.170;20.884;2022-08-01T08:27:13;100209.66;;;26.79;49.81
21276;BME280;36472;52.170;20.884;2022-08-01T08:29:42;100214.06;;;27.32;48.69
21276;BME280;36472;52.170;20.884;2022-08-01T08:32:13;100213.53;;;27.03;49.52
21276;BME280;36472;52.170;20.884;2022-08-01T08:34:42;100214.19;;;26.85;48.55
21276;BME280;36472;52.170;20.884;2022-08-01T08:37:11;100215.69;;;27.33;47.76
21276;BME280;36472;52.170;20.884;2022-08-01T08:39:40;100224.06;;;27.18;50.18
21276;BME280;36472;52.170;20.884;2022-08-01T08:42:10;100224.03;;;27.24;48.88
21276;BME280;36472;52.170;20.884;2022-08-01T08:44:41;100225.28;;;27.15;49.92
21276;BME280;36472;52.170;20.884;2022-08-01T08:47:14;100221.41;;;27.88;44.82
21276;BME280;36472;52.170;20.884;2022-08-01T08:49:48;100222.59;;;27.99;46.12
21276;BME280;36472;52.170;20.884;2022-08-01T08:52:20;100226.88;;;29.19;41.55
21276;BME280;36472;52.170;20.884;2022-08-01T08:54:50;100233.19;;;29.32;40.88
21276;BME280;36472;52.170;20.884;2022-08-01T08:57:21;100234.81;;;28.77;42.69
21276;BME280;36472;52.170;20.884;2022-08-01T08:59:50;100232.78;;;29.09;40.67
21276;BME280;36472;52.170;20.884;2022-08-01T09:02:23;100238.19;;;28.72;42.55
21276;BME280;36472;52.170;20.884;2022-08-01T09:04:52;100235.56;;;28.15;42.18
21276;BME280;36472;52.170;20.884;2022-08-01T09:07:21;100240.88;;;28.47;41.27
21276;BME280;36472;52.170;20.884;2022-08-01T09:09:50;100236.00;;;28.38;45.11
21276;BME280;36472;52.170;20.884;2022-08-01T09:12:20;100247.28;;;29.52;41.96
21276;BME280;36472;52.170;20.884;2022-08-01T09:14:49;100243.94;;;30.11;40.59
21276;BME280;36472;52.170;20.884;2022-08-01T09:17:22;100244.22;;;30.45;39.98
21276;BME280;36472;52.170;20.884;2022-08-01T09:19:54;100247.66;;;31.40;34.86
21276;BME280;36472;52.170;20.884;2022-08-01T09:22:24;100241.53;;;29.91;38.91
21276;BME280;36472;52.170;20.884;2022-08-01T09:25:06;100249.06;;;29.89;41.47
21276;BME280;36472;52.170;20.884;2022-08-01T09:27:37;100254.16;;;31.27;36.23
21276;BME280;36472;52.170;20.884;2022-08-01T16:05:22;100213.25;;;25.37;50.65
21276;BME280;36472;52.170;20.884;2022-08-01T16:07:50;100214.41;;;25.76;48.67
21276;BME280;36472;52.170;20.884;2022-08-01T16:10:28;100217.91;;;25.70;50.36
21276;BME280;36472;52.170;20.884;2022-08-01T16:12:57;100219.50;;;24.61;54.31
21276;BME280;36472;52.170;20.884;2022-08-01T16:15:34;100225.25;;;24.58;55.99
21276;BME280;36472;52.170;20.884;2022-08-01T16:18:05;100216.81;;;25.03;55.00
21276;BME280;36472;52.170;20.884;2022-08-01T16:20:35;100224.22;;;24.94;56.40
21276;BME280;36472;52.170;20.884;2022-08-01T16:23:11;100236.56;;;24.89;57.62
21276;BME280;36472;52.170;20.884;2022-08-01T16:25:40;100237.75;;;24.23;61.53
21276;BME280;36472;52.170;20.884;2022-08-01T16:28:10;100230.00;;;24.35;61.23
21276;BME280;36472;52.170;20.884;2022-08-01T16:30:41;100226.69;;;23.89;64.71
21276;BME280;36472;52.170;20.884;2022-08-01T16:33:30;100239.88;;;24.27;60.28
21276;BME280;36472;52.170;20.884;2022-08-01T16:36:20;100243.44;;;24.35;58.77
21276;BME280;36472;52.170;20.884;2022-08-01T16:38:51;100237.19;;;24.27;60.94
21276;BME280;36472;52.170;20.884;2022-08-01T16:41:20;100237.00;;;23.86;63.26
21276;BME280;36472;52.170;20.884;2022-08-01T16:43:49;100236.78;;;23.66;66.17
21276;BME280;36472;52.170;20.884;2022-08-01T16:46:22;100230.63;;;23.72;63.84
21276;BME280;36472;52.170;20.884;2022-08-01T16:48:52;100230.91;;;24.20;60.95
21276;BME280;36472;52.170;20.884;2022-08-01T16:51:22;100228.19;;;23.56;69.70
21276;BME280;36472;52.170;20.884;2022-08-01T16:53:51;100230.44;;;23.74;64.75
21276;BME280;36472;52.170;20.884;2022-08-01T16:56:20;100233.34;;;23.57;64.39
21276;BME280;36472;52.170;20.884;2022-08-01T16:58:49;100229.94;;;23.48;65.38
21276;BME280;36472;52.170;20.884;2022-08-01T17:01:17;100228.00;;;23.94;61.74
21276;BME280;36472;52.170;20.884;2022-08-01T17:04:06;100229.16;;;23.69;63.40
21276;BME280;36472;52.170;20.884;2022-08-01T17:06:36;100230.63;;;23.36;66.09
21276;BME280;36472;52.170;20.884;2022-08-01T17:09:05;100233.78;;;23.39;67.10
21276;BME280;36472;52.170;20.884;2022-08-01T17:11:35;100231.03;;;23.18;70.65
21276;BME280;36472;52.170;20.884;2022-08-01T17:14:04;100226.75;;;22.93;76.02
21276;BME280;36472;52.170;20.884;2022-08-01T17:16:33;100238.50;;;22.77;73.55
21276;BME280;36472;52.170;20.884;2022-08-01T17:19:02;100228.22;;;22.66;76.44
21276;BME280;36472;52.170;20.884;2022-08-01T17:21:31;100240.41;;;22.54;77.16
21276;BME280;36472;52.170;20.884;2022-08-01T17:24:01;100230.13;;;22.42;79.11
21276;BME280;36472;52.170;20.884;2022-08-01T17:26:30;100229.84;;;22.37;77.92
21276;BME280;36472;52.170;20.884;2022-08-01T17:28:58;100242.75;;;22.34;79.47
21276;BME280;36472;52.170;20.884;2022-08-01T17:31:27;100232.09;;;22.26;76.15
21276;BME280;36472;52.170;20.884;2022-08-01T17:33:56;100238.00;;;22.21;78.36
21276;BME280;36472;52.170;20.884;2022-08-01T17:36:25;100238.72;;;22.15;81.06
21276;BME280;36472;52.170;20.884;2022-08-01T17:38:54;100240.28;;;22.09;80.00
21276;BME280;36472;52.170;20.884;2022-08-01T17:41:24;100241.44;;;22.07;79.96
21276;BME280;36472;52.170;20.884;2022-08-01T17:43:53;100250.84;;;22.02;76.95
21276;BME280;36472;52.170;20.884;2022-08-01T17:46:22;100243.81;;;22.01;80.16
21276;BME280;36472;52.170;20.884;2022-08-01T17:48:51;100250.91;;;21.94;81.36
21276;BME280;36472;52.170;20.884;2022-08-01T17:51:19;100246.94;;;21.90;83.24
21276;BME280;36472;52.170;20.884;2022-08-01T17:53:49;100251.81;;;21.87;81.17
21276;BME280;36472;52.170;20.884;2022-08-01T17:56:26;100254.00;;;21.83;83.20
21276;BME280;36472;52.170;20.884;2022-08-01T17:58:55;100254.53;;;21.78;81.07
21276;BME280;36472;52.170;20.884;2022-08-01T18:01:24;100239.19;;;21.72;82.60
21276;BME280;36472;52.170;20.884;2022-08-01T18:03:54;100248.22;;;21.71;83.69
21276;BME280;36472;52.170;20.884;2022-08-01T18:06:25;100245.44;;;21.64;83.29
21276;BME280;36472;52.170;20.884;2022-08-01T18:08:55;100251.94;;;21.62;83.00
21276;BME280;36472;52.170;20.884;2022-08-01T18:11:29;100249.44;;;21.60;83.32
21276;BME280;36472;52.170;20.884;2022-08-01T18:14:04;100248.13;;;21.56;83.14
21276;BME280;36472;52.170;20.884;2022-08-01T18:16:33;100246.47;;;21.55;82.05
21276;BME280;36472;52.170;20.884;2022-08-01T18:19:04;100255.34;;;21.56;82.97
21276;BME280;36472;52.170;20.884;2022-08-01T18:21:33;100251.34;;;21.52;82.49
21276;BME280;36472;52.170;20.884;2022-08-01T18:24:08;100253.53;;;21.48;87.48
21276;BME280;36472;52.170;20.884;2022-08-01T18:26:38;100255.84;;;21.43;86.82
21276;BME280;36472;52.170;20.884;2022-08-01T18:29:07;100263.56;;;21.38;85.84
21276;BME280;36472;52.170;20.884;2022-08-01T18:31:38;100265.28;;;21.30;86.81
21276;BME280;36472;52.170;20.884;2022-08-01T18:34:07;100268.28;;;21.27;89.12
21276;BME280;36472;52.170;20.884;2022-08-01T18:36:35;100266.97;;;21.23;90.29
21276;BME280;36472;52.170;20.884;2022-08-01T18:39:08;100268.16;;;21.21;92.28
21276;BME280;36472;52.170;20.884;2022-08-01T18:41:39;100272.00;;;21.18;88.51
21276;BME280;36472;52.170;20.884;2022-08-01T18:44:07;100274.19;;;21.15;85.87
21276;BME280;36472;52.170;20.884;2022-08-01T18:46:37;100284.03;;;21.14;90.21
21276;BME280;36472;52.170;20.884;2022-08-01T18:49:09;100283.72;;;21.09;91.13
21276;BME280;36472;52.170;20.884;2022-08-01T18:51:39;100294.06;;;21.04;90.07
21276;BME280;36472;52.170;20.884;2022-08-01T18:54:12;100287.91;;;21.03;89.67
21276;BME280;36472;52.170;20.884;2022-08-01T18:56:43;100288.25;;;21.00;87.63
21276;BME280;36472;52.170;20.884;2022-08-01T18:59:12;100286.56;;;20.99;88.93
21276;BME280;36472;52.170;20.884;2022-08-01T19:01:42;100294.59;;;20.99;92.19
21276;BME280;36472;52.170;20.884;2022-08-01T19:04:11;100296.09;;;20.93;92.60
21276;BME280;36472;52.170;20.884;2022-08-01T19:06:40;100304.81;;;20.87;92.03
21276;BME280;36472;52.170;20.884;2022-08-01T19:09:13;100299.66;;;20.86;90.86
21276;BME280;36472;52.170;20.884;2022-08-01T19:11:48;100297.13;;;20.84;90.96
21276;BME280;36472;52.170;20.884;2022-08-01T19:14:17;100295.63;;;20.82;90.06
21276;BME280;36472;52.170;20.884;2022-08-01T19:16:46;100299.31;;;20.81;90.89
21276;BME280;36472;52.170;20.884;2022-08-01T19:19:15;100292.78;;;20.75;93.02
21276;BME280;36472;52.170;20.884;2022-08-01T19:21:54;100295.31;;;20.68;95.40
21276;BME280;36472;52.170;20.884;2022-08-01T19:24:23;100302.81;;;20.65;94.52
21276;BME280;36472;52.170;20.884;2022-08-01T19:26:56;100310.00;;;20.64;95.79
21276;BME280;36472;52.170;20.884;2022-08-01T19:29:35;100302.47;;;20.60;94.58
21276;BME280;36472;52.170;20.884;2022-08-01T19:32:06;100304.31;;;20.59;93.13
21276;BME280;36472;52.170;20.884;2022-08-01T19:34:46;100304.31;;;20.59;94.50